createdAt,value
2019-02-24T00:01:27.245Z,1.20
2019-02-24T00:03:55.744Z,1.30
2019-02-24T00:06:24.397Z,0.60
2019-02-24T00:08:53.016Z,0.70
2019-02-24T00:11:21.523Z,1.00
2019-02-24T00:13:50.145Z,1.83
2019-02-24T00:16:18.771Z,0.43
2019-02-24T00:18:47.407Z,0.97
2019-02-24T00:21:16.113Z,0.80
2019-02-24T00:23:44.854Z,1.87
2019-02-24T00:26:13.474Z,1.00
2019-02-24T00:28:42.125Z,0.50
2019-02-24T00:31:10.604Z,1.63
2019-02-24T00:33:39.219Z,2.67
2019-02-24T00:36:07.761Z,1.60
2019-02-24T00:38:36.315Z,1.47
2019-02-24T00:41:04.932Z,1.93
2019-02-24T00:43:33.754Z,0.70
2019-02-24T00:46:02.247Z,1.30
2019-02-24T00:48:30.742Z,1.53
2019-02-24T00:50:59.615Z,1.70
2019-02-24T00:53:28.249Z,0.97
2019-02-24T00:55:56.736Z,0.57
2019-02-24T00:58:25.263Z,1.90
2019-02-24T01:00:53.891Z,0.97
2019-02-24T01:03:22.515Z,1.67
2019-02-24T01:05:51.304Z,0.90
2019-02-24T01:08:19.865Z,1.60
2019-02-24T01:10:48.483Z,1.43
2019-02-24T01:13:17.755Z,0.60
2019-02-24T01:15:46.384Z,1.40
2019-02-24T01:18:15.013Z,1.67
2019-02-24T01:20:43.533Z,0.60
2019-02-24T01:23:12.092Z,0.80
2019-02-24T01:25:40.721Z,0.80
2019-02-24T01:28:09.386Z,1.13
2019-02-24T01:30:37.876Z,1.00
2019-02-24T01:33:09.478Z,0.80
2019-02-24T01:35:38.142Z,1.03
2019-02-24T01:38:06.759Z,1.20
2019-02-24T01:40:35.286Z,1.07
2019-02-24T01:43:03.837Z,0.70
2019-02-24T01:45:32.463Z,0.57
2019-02-24T01:48:01.095Z,1.10
2019-02-24T01:50:29.604Z,0.60
2019-02-24T01:52:58.336Z,0.93
2019-02-24T01:55:26.815Z,0.70
2019-02-24T01:57:55.340Z,0.90
2019-02-24T02:00:23.957Z,0.90
2019-02-24T02:02:52.571Z,0.90
2019-02-24T02:05:21.095Z,0.70
2019-02-24T02:07:49.588Z,0.90
2019-02-24T02:10:18.220Z,0.97
2019-02-24T02:12:46.903Z,0.80
2019-02-24T02:15:15.382Z,0.90
2019-02-24T02:17:43.878Z,0.43
2019-02-24T02:20:12.493Z,0.60
2019-02-24T02:22:41.143Z,0.63
2019-02-24T02:25:10.063Z,0.77
2019-02-24T02:27:38.620Z,0.80
2019-02-24T02:30:10.337Z,0.70
2019-02-24T02:32:38.953Z,0.60
2019-02-24T02:35:08.778Z,0.67
2019-02-24T02:37:37.585Z,0.70
2019-02-24T02:40:08.022Z,0.80
2019-02-24T02:42:36.672Z,0.40
2019-02-24T02:45:07.546Z,0.80
2019-02-24T02:47:36.093Z,0.60
2019-02-24T02:50:05.612Z,0.70
2019-02-24T02:52:34.263Z,0.60
2019-02-24T02:55:02.831Z,0.60
2019-02-24T02:57:31.304Z,0.70
2019-02-24T02:59:59.971Z,0.47
2019-02-24T03:02:28.589Z,0.50
2019-02-24T03:04:57.072Z,0.70
2019-02-24T03:07:35.733Z,0.80
2019-02-24T03:10:05.057Z,0.80
2019-02-24T03:12:33.616Z,0.70
2019-02-24T03:15:02.319Z,0.63
2019-02-24T03:17:30.977Z,0.40
2019-02-24T03:19:59.469Z,0.57
2019-02-24T03:22:28.014Z,0.70
2019-02-24T03:24:56.647Z,0.67
2019-02-24T03:27:25.261Z,0.67
2019-02-24T03:29:53.794Z,0.50
2019-02-24T03:32:22.293Z,0.70
2019-02-24T03:34:50.905Z,0.50
2019-02-24T03:37:19.776Z,0.40
2019-02-24T03:39:48.272Z,0.40
2019-02-24T03:42:16.752Z,0.50
2019-02-24T03:44:45.615Z,0.60
2019-02-24T03:47:14.233Z,0.30
2019-02-24T03:49:42.784Z,0.30
2019-02-24T03:52:11.675Z,0.40
2019-02-24T03:54:40.291Z,0.57
2019-02-24T03:57:08.511Z,0.60
2019-02-24T03:59:37.267Z,0.20
2019-02-24T04:02:05.885Z,0.50
2019-02-24T04:04:34.438Z,0.40
2019-02-24T04:07:03.034Z,0.20
2019-02-24T04:09:31.659Z,0.30
2019-02-24T04:12:00.279Z,0.47
2019-02-24T04:14:28.795Z,0.20
2019-02-24T04:16:57.285Z,0.30
2019-02-24T04:19:25.914Z,0.50
2019-02-24T04:21:54.559Z,0.50
2019-02-24T04:24:23.035Z,0.10
2019-02-24T04:26:51.528Z,0.40
2019-02-24T04:29:24.850Z,0.30
2019-02-24T04:31:50.489Z,0.40
2019-02-24T04:34:19.106Z,0.47
2019-02-24T04:36:47.782Z,0.70
2019-02-24T04:39:16.268Z,0.47
2019-02-24T04:41:44.761Z,0.40
2019-02-24T04:44:13.439Z,0.30
2019-02-24T04:46:42.100Z,0.67
2019-02-24T04:49:10.593Z,0.50
2019-02-24T04:51:39.106Z,0.20
2019-02-24T04:54:07.735Z,0.47
2019-02-24T04:56:36.366Z,0.50
2019-02-24T04:59:04.894Z,0.40
2019-02-24T05:01:33.374Z,0.70
2019-02-24T05:04:01.998Z,0.40
2019-02-24T05:06:30.651Z,0.30
2019-02-24T05:08:59.129Z,0.60
2019-02-24T05:11:27.760Z,0.70
2019-02-24T05:13:56.257Z,0.70
2019-02-24T05:16:24.731Z,2.97
2019-02-24T05:18:53.350Z,1.97
2019-02-24T05:21:21.974Z,1.80
2019-02-24T05:23:50.659Z,4.67
2019-02-24T05:26:19.156Z,1.80
2019-02-24T05:28:47.775Z,4.37
2019-02-24T05:31:16.418Z,3.43
2019-02-24T05:33:44.908Z,4.20
2019-02-24T05:36:13.392Z,2.37
2019-02-24T05:38:42.071Z,3.47
2019-02-24T05:41:10.755Z,4.73
2019-02-24T05:43:39.254Z,5.43
2019-02-24T05:46:07.785Z,4.80
2019-02-24T05:48:36.458Z,5.17
2019-02-24T05:51:04.957Z,4.93
2019-02-24T05:53:33.633Z,4.60
2019-02-24T05:56:02.252Z,3.17
2019-02-24T05:58:30.738Z,2.83
2019-02-24T06:00:59.281Z,3.00
2019-02-24T06:03:27.897Z,3.27
2019-02-24T06:05:56.516Z,3.90
2019-02-24T06:08:25.046Z,4.40
2019-02-24T06:10:53.527Z,4.07
2019-02-24T06:13:22.149Z,3.10
2019-02-24T06:15:50.772Z,3.60
2019-02-24T06:18:19.259Z,3.30
2019-02-24T06:20:47.758Z,3.43
2019-02-24T06:23:16.428Z,3.47
2019-02-24T06:25:45.058Z,4.20
2019-02-24T06:28:13.603Z,3.30
2019-02-24T06:30:42.276Z,3.17
2019-02-24T06:33:10.825Z,2.90
2019-02-24T06:35:39.322Z,2.20
2019-02-24T06:38:08.160Z,2.27
2019-02-24T06:40:36.800Z,1.40
2019-02-24T06:43:05.351Z,1.43
2019-02-24T06:45:34.057Z,1.53
2019-02-24T06:48:02.732Z,1.47
2019-02-24T06:50:35.598Z,1.40
2019-02-24T06:53:03.224Z,1.40
2019-02-24T06:55:31.699Z,1.23
2019-02-24T06:58:00.331Z,1.87
2019-02-24T07:00:29.200Z,0.50
2019-02-24T07:02:57.685Z,0.60
2019-02-24T07:05:26.306Z,0.70
2019-02-24T07:07:54.905Z,0.83
2019-02-24T07:10:23.475Z,0.67
2019-02-24T07:12:52.105Z,0.83
2019-02-24T07:15:20.793Z,0.47
2019-02-24T07:17:49.258Z,0.43
2019-02-24T07:20:17.808Z,1.10
2019-02-24T07:22:46.456Z,0.70
2019-02-24T07:25:15.086Z,1.00
2019-02-24T07:27:43.580Z,0.30
2019-02-24T07:30:12.493Z,1.10
2019-02-24T07:32:41.120Z,1.17
2019-02-24T07:35:09.938Z,0.50
2019-02-24T07:37:38.554Z,0.43
2019-02-24T07:40:07.201Z,0.60
2019-02-24T07:42:35.816Z,0.70
2019-02-24T07:45:06.255Z,0.90
2019-02-24T07:47:34.744Z,0.50
2019-02-24T07:50:03.306Z,1.63
2019-02-24T07:52:31.975Z,0.90
2019-02-24T07:55:00.601Z,0.60
2019-02-24T07:57:29.228Z,0.30
2019-02-24T07:59:58.048Z,1.20
2019-02-24T08:02:26.613Z,2.63
2019-02-24T08:04:55.087Z,0.93
2019-02-24T08:07:23.760Z,1.10
2019-02-24T08:09:52.423Z,0.63
2019-02-24T08:12:20.916Z,0.60
2019-02-24T08:14:49.511Z,0.80
2019-02-24T08:17:18.135Z,0.40
2019-02-24T08:19:46.765Z,0.30
2019-02-24T08:22:15.288Z,0.77
2019-02-24T08:24:43.769Z,0.30
2019-02-24T08:27:12.402Z,0.83
2019-02-24T08:29:40.991Z,0.60
2019-02-24T08:32:09.617Z,0.70
2019-02-24T08:34:38.252Z,0.60
2019-02-24T08:37:06.846Z,0.80
2019-02-24T08:39:35.334Z,0.23
2019-02-24T08:42:03.961Z,1.27
2019-02-24T08:44:32.631Z,0.80
2019-02-24T08:47:01.121Z,0.90
2019-02-24T08:49:29.614Z,0.50
2019-02-24T08:51:58.287Z,0.50
2019-02-24T08:54:26.956Z,0.60
2019-02-24T08:56:55.763Z,0.50
2019-02-24T08:59:24.332Z,0.67
2019-02-24T09:01:52.951Z,0.60
2019-02-24T09:04:21.570Z,1.10
2019-02-24T09:06:50.306Z,0.43
2019-02-24T09:09:18.929Z,0.50
2019-02-24T09:11:47.416Z,2.30
2019-02-24T09:14:16.068Z,1.20
2019-02-24T09:16:44.685Z,0.60
2019-02-24T09:19:13.314Z,0.90
2019-02-24T09:21:42.113Z,1.20
2019-02-24T09:24:10.600Z,1.27
2019-02-24T09:26:39.228Z,2.37
2019-02-24T09:29:08.160Z,0.90
2019-02-24T09:31:36.640Z,1.27
2019-02-24T09:34:05.186Z,0.60
2019-02-24T09:36:34.130Z,0.63
2019-02-24T09:39:04.389Z,0.70
2019-02-24T09:41:32.875Z,0.67
2019-02-24T09:44:01.707Z,0.60
2019-02-24T09:46:30.329Z,0.80
2019-02-24T09:48:58.812Z,0.60
2019-02-24T09:51:27.433Z,0.50
2019-02-24T09:53:56.067Z,0.63
2019-02-24T09:56:24.923Z,0.60
2019-02-24T09:58:53.411Z,0.77
2019-02-24T10:01:22.024Z,0.63
2019-02-24T10:03:50.708Z,0.73
2019-02-24T10:06:19.261Z,1.57
2019-02-24T10:08:47.801Z,1.37
2019-02-24T10:11:16.468Z,1.03
2019-02-24T10:13:45.085Z,0.60
2019-02-24T10:16:13.649Z,0.80
2019-02-24T10:18:42.172Z,0.60
2019-02-24T10:21:10.731Z,0.53
2019-02-24T10:23:39.348Z,0.83
2019-02-24T10:26:07.948Z,3.37
2019-02-24T10:28:36.437Z,0.50
2019-02-24T10:31:05.130Z,0.40
2019-02-24T10:33:33.780Z,1.00
2019-02-24T10:36:02.266Z,0.40
2019-02-24T10:38:30.754Z,0.80
2019-02-24T10:40:59.410Z,0.27
2019-02-24T10:43:28.042Z,0.70
2019-02-24T10:45:56.613Z,1.27
2019-02-24T10:48:25.135Z,0.40
2019-02-24T10:50:53.763Z,0.50
2019-02-24T10:53:22.387Z,0.50
2019-02-24T10:55:50.908Z,0.70
2019-02-24T10:58:21.241Z,0.43
2019-02-24T11:00:50.032Z,0.60
2019-02-24T11:03:18.717Z,0.40
2019-02-24T11:05:47.227Z,0.70
2019-02-24T11:08:15.846Z,0.60
2019-02-24T11:10:44.372Z,1.40
2019-02-24T11:13:12.945Z,1.20
2019-02-24T11:15:41.571Z,0.70
2019-02-24T11:18:10.232Z,0.60
2019-02-24T11:20:38.702Z,0.80
2019-02-24T11:23:07.194Z,0.50
2019-02-24T11:25:35.867Z,0.57
2019-02-24T11:28:04.503Z,0.50
2019-02-24T11:30:33.014Z,0.80
2019-02-24T11:33:01.672Z,2.67
2019-02-24T11:35:30.315Z,15.57
2019-02-24T11:37:58.958Z,11.07
2019-02-24T11:40:27.772Z,0.70
2019-02-24T11:42:56.269Z,80.80
2019-02-24T11:45:24.997Z,12.40
2019-02-24T11:47:53.532Z,1.07
2019-02-24T11:50:22.165Z,4.30
2019-02-24T11:52:50.791Z,1.33
2019-02-24T11:55:19.325Z,0.60
2019-02-24T11:57:47.809Z,30.07
2019-02-24T12:00:16.644Z,14.73
2019-02-24T12:02:45.448Z,2.30
2019-02-24T12:05:14.280Z,0.77
2019-02-24T12:07:42.836Z,1.00
2019-02-24T12:10:12.610Z,1.73
2019-02-24T12:12:41.256Z,1.00
2019-02-24T12:15:14.031Z,1.47
2019-02-24T12:17:42.799Z,1.73
2019-02-24T12:20:12.533Z,16.30
2019-02-24T12:22:41.177Z,15.83
2019-02-24T12:25:11.900Z,2.80
2019-02-24T12:27:40.451Z,1.70
2019-02-24T12:30:16.490Z,1.27
2019-02-24T12:32:45.078Z,1.10
2019-02-24T12:35:13.710Z,0.90
2019-02-24T12:37:42.332Z,1.07
2019-02-24T12:40:12.900Z,1.30
2019-02-24T12:42:41.466Z,0.70
2019-02-24T12:45:10.990Z,1.70
2019-02-24T12:47:39.646Z,1.67
2019-02-24T12:50:13.654Z,1.13
2019-02-24T12:52:42.205Z,2.07
2019-02-24T12:55:11.362Z,1.20
2019-02-24T12:57:40.696Z,0.90
2019-02-24T13:00:19.250Z,2.10
2019-02-24T13:02:47.787Z,0.70
2019-02-24T13:05:17.324Z,0.53
2019-02-24T13:07:45.950Z,0.63
2019-02-24T13:10:26.921Z,0.40
2019-02-24T13:12:55.475Z,0.70
2019-02-24T13:15:24.105Z,0.40
2019-02-24T13:17:52.763Z,0.60
2019-02-24T13:20:21.330Z,0.30
2019-02-24T13:22:49.881Z,0.40
2019-02-24T13:25:18.540Z,0.40
2019-02-24T13:27:47.210Z,0.30
2019-02-24T13:30:17.408Z,0.60
2019-02-24T13:32:46.220Z,0.50
2019-02-24T13:35:14.831Z,0.70
2019-02-24T13:37:43.467Z,0.60
2019-02-24T13:40:16.430Z,0.50
2019-02-24T13:42:44.976Z,0.67
2019-02-24T13:45:18.604Z,1.07
2019-02-24T13:47:47.194Z,0.90
2019-02-24T13:50:16.225Z,0.80
2019-02-24T13:52:44.862Z,1.17
2019-02-24T13:55:14.507Z,0.43
2019-02-24T13:57:43.137Z,0.50
2019-02-24T14:00:17.206Z,1.23
2019-02-24T14:02:45.866Z,1.23
2019-02-24T14:05:14.478Z,0.97
2019-02-24T14:07:43.037Z,0.30
2019-02-24T14:10:13.300Z,1.10
2019-02-24T14:12:41.916Z,0.50
2019-02-24T14:15:12.232Z,0.60
2019-02-24T14:17:40.765Z,0.40
2019-02-24T14:20:16.720Z,0.60
2019-02-24T14:22:45.584Z,0.73
2019-02-24T14:25:14.900Z,1.23
2019-02-24T14:27:43.529Z,0.40
2019-02-24T14:30:17.075Z,1.00
2019-02-24T14:32:45.709Z,1.03
2019-02-24T14:35:19.361Z,0.60
2019-02-24T14:37:53.738Z,0.43
2019-02-24T14:40:22.380Z,0.90
2019-02-24T14:42:50.873Z,0.50
2019-02-24T14:45:24.265Z,0.50
2019-02-24T14:47:52.897Z,0.67
2019-02-24T14:50:21.458Z,2.17
2019-02-24T14:52:49.969Z,0.70
2019-02-24T14:55:18.698Z,0.43
2019-02-24T14:57:47.377Z,0.20
2019-02-24T15:00:23.631Z,0.70
2019-02-24T15:02:52.120Z,0.90
2019-02-24T15:05:20.752Z,0.70
2019-02-24T15:07:49.285Z,1.13
2019-02-24T15:10:19.320Z,1.03
2019-02-24T15:12:47.942Z,0.63
2019-02-24T15:15:19.299Z,1.40
2019-02-24T15:17:47.847Z,0.90
2019-02-24T15:20:20.898Z,2.47
2019-02-24T15:22:49.638Z,1.87
2019-02-24T15:25:18.770Z,1.93
2019-02-24T15:27:47.406Z,1.97
2019-02-24T15:30:24.798Z,2.30
2019-02-24T15:32:53.410Z,1.30
2019-02-24T15:35:21.973Z,2.40
2019-02-24T15:37:50.628Z,1.23
2019-02-24T15:40:19.250Z,1.00
2019-02-24T15:42:47.885Z,1.43
2019-02-24T15:45:16.549Z,7.57
2019-02-24T15:47:45.185Z,9.97
2019-02-24T15:50:14.239Z,4.00
2019-02-24T15:52:42.837Z,5.07
2019-02-24T15:55:13.835Z,0.90
2019-02-24T15:57:42.458Z,5.93
2019-02-24T16:00:14.202Z,1.77
2019-02-24T16:02:42.751Z,2.70
2019-02-24T16:05:11.964Z,3.30
2019-02-24T16:07:40.726Z,1.60
2019-02-24T16:10:12.260Z,2.40
2019-02-24T16:12:40.875Z,2.63
2019-02-24T16:15:12.344Z,1.93
2019-02-24T16:17:40.926Z,1.30
2019-02-24T16:20:18.124Z,1.90
2019-02-24T16:22:46.748Z,1.00
2019-02-24T16:25:15.364Z,2.77
2019-02-24T16:27:44.321Z,1.73
2019-02-24T16:30:14.974Z,2.03
2019-02-24T16:32:43.600Z,2.50
2019-02-24T16:35:14.981Z,3.03
2019-02-24T16:37:43.479Z,2.10
2019-02-24T16:40:17.221Z,3.90
2019-02-24T16:42:45.891Z,2.57
2019-02-24T16:45:15.933Z,2.07
2019-02-24T16:47:44.830Z,1.80
2019-02-24T16:50:18.790Z,3.17
2019-02-24T16:52:47.421Z,1.97
2019-02-24T16:55:16.736Z,3.30
2019-02-24T16:57:45.696Z,2.63
2019-02-24T17:00:17.194Z,3.20
2019-02-24T17:02:45.828Z,2.23
2019-02-24T17:05:14.702Z,3.70
2019-02-24T17:07:43.409Z,4.27
2019-02-24T17:10:17.604Z,5.30
2019-02-24T17:12:46.363Z,3.57
2019-02-24T17:15:14.985Z,3.77
2019-02-24T17:17:43.675Z,3.50
2019-02-24T17:20:19.780Z,3.20
2019-02-24T17:22:48.411Z,3.40
2019-02-24T17:25:17.044Z,3.07
2019-02-24T17:27:45.945Z,2.33
2019-02-24T17:30:16.038Z,2.87
2019-02-24T17:32:44.590Z,3.00
2019-02-24T17:35:13.559Z,2.90
2019-02-24T17:37:42.193Z,2.43
2019-02-24T17:40:13.113Z,2.57
2019-02-24T17:42:41.775Z,4.33
2019-02-24T17:45:12.206Z,2.80
2019-02-24T17:47:40.805Z,3.30
2019-02-24T17:50:11.928Z,4.20
2019-02-24T17:52:40.556Z,4.37
2019-02-24T17:55:11.279Z,6.30
2019-02-24T17:57:39.818Z,4.93
2019-02-24T18:00:14.743Z,6.40
2019-02-24T18:02:43.354Z,3.73
2019-02-24T18:05:11.959Z,3.47
2019-02-24T18:07:40.526Z,3.40
2019-02-24T18:10:09.152Z,2.77
2019-02-24T18:12:37.801Z,3.17
2019-02-24T18:15:09.559Z,4.57
2019-02-24T18:17:38.055Z,4.17
2019-02-24T18:20:09.954Z,2.70
2019-02-24T18:22:38.582Z,3.37
2019-02-24T18:25:10.357Z,3.50
2019-02-24T18:27:39.013Z,2.23
2019-02-24T18:30:13.356Z,2.20
2019-02-24T18:32:41.970Z,2.17
2019-02-24T18:35:10.640Z,2.13
2019-02-24T18:37:39.379Z,3.33
2019-02-24T18:40:11.006Z,2.23
2019-02-24T18:42:39.652Z,3.13
2019-02-24T18:45:10.666Z,3.13
2019-02-24T18:47:39.214Z,2.30
2019-02-24T18:50:10.743Z,5.13
2019-02-24T18:52:39.415Z,4.07
2019-02-24T18:55:10.033Z,3.73
2019-02-24T18:57:38.666Z,2.67
2019-02-24T19:00:13.081Z,2.87
2019-02-24T19:02:41.708Z,3.00
2019-02-24T19:05:10.370Z,3.03
2019-02-24T19:07:38.996Z,3.73
2019-02-24T19:10:16.196Z,4.80
2019-02-24T19:12:44.826Z,5.83
2019-02-24T19:15:18.398Z,6.60
2019-02-24T19:17:47.139Z,5.40
2019-02-24T19:20:22.702Z,7.50
2019-02-24T19:22:51.322Z,3.33
2019-02-24T19:25:19.953Z,1.70
2019-02-24T19:27:48.865Z,3.53
2019-02-24T19:30:18.687Z,2.37
2019-02-24T19:32:47.306Z,2.33
2019-02-24T19:35:16.825Z,2.23
2019-02-24T19:37:45.759Z,2.27
2019-02-24T19:40:21.337Z,2.37
2019-02-24T19:42:50.067Z,2.77
2019-02-24T19:45:22.966Z,2.43
2019-02-24T19:47:51.542Z,2.87
2019-02-24T19:50:26.231Z,3.73
2019-02-24T19:52:54.857Z,3.97
2019-02-24T19:55:23.655Z,4.50
2019-02-24T19:57:52.212Z,4.23
2019-02-24T20:00:27.635Z,3.70
2019-02-24T20:02:56.585Z,5.27
2019-02-24T20:05:25.125Z,5.57
2019-02-24T20:07:53.684Z,6.30
2019-02-24T20:10:26.704Z,8.93
2019-02-24T20:12:55.370Z,9.60
2019-02-24T20:15:23.995Z,9.80
2019-02-24T20:17:52.794Z,10.63
2019-02-24T20:20:21.423Z,12.53
2019-02-24T20:22:50.074Z,12.80
2019-02-24T20:25:22.840Z,12.77
2019-02-24T20:27:51.591Z,14.83
2019-02-24T20:30:25.408Z,16.47
2019-02-24T20:32:54.271Z,11.40
2019-02-24T20:35:22.969Z,12.53
2019-02-24T20:37:51.595Z,13.27
2019-02-24T20:40:20.256Z,12.17
2019-02-24T20:42:48.905Z,11.83
2019-02-24T20:45:19.434Z,11.47
2019-02-24T20:47:48.190Z,13.60
2019-02-24T20:50:22.659Z,13.77
2019-02-24T20:52:51.147Z,10.60
2019-02-24T20:55:19.855Z,12.90
2019-02-24T20:57:48.476Z,6.43
2019-02-24T21:00:22.693Z,7.73
2019-02-24T21:02:51.663Z,9.30
2019-02-24T21:05:20.301Z,6.80
2019-02-24T21:07:48.803Z,11.90
2019-02-24T21:10:17.702Z,12.17
2019-02-24T21:12:46.324Z,12.10
2019-02-24T21:15:17.128Z,9.70
2019-02-24T21:17:45.715Z,9.60
2019-02-24T21:20:19.565Z,9.70
2019-02-24T21:22:50.423Z,8.70
2019-02-24T21:25:18.584Z,8.03
2019-02-24T21:27:47.138Z,7.93
2019-02-24T22:05:32.408Z,22.77
2019-02-24T22:08:58.427Z,24.57
2019-02-24T22:11:26.952Z,25.37
2019-02-24T22:17:36.216Z,27.73
2019-02-24T22:20:07.354Z,30.23
2019-02-24T22:22:35.986Z,31.07
2019-02-24T22:25:09.718Z,35.20
2019-02-24T22:27:38.278Z,34.20
2019-02-24T22:30:12.369Z,41.33
2019-02-24T22:32:41.040Z,54.77
2019-02-24T22:35:10.183Z,68.00
2019-02-24T22:37:38.747Z,64.03
2019-02-24T22:40:10.634Z,51.43
2019-02-24T22:42:39.275Z,53.77
2019-02-24T22:45:13.582Z,46.43
2019-02-24T22:47:43.018Z,42.50
2019-02-24T22:50:12.251Z,35.93
2019-02-24T22:52:40.886Z,35.07
2019-02-24T22:55:12.480Z,34.37
2019-02-24T22:57:41.124Z,34.80
2019-02-24T23:00:52.436Z,31.70
2019-02-24T23:03:22.683Z,30.17
2019-02-24T23:05:51.504Z,30.20
2019-02-24T23:08:20.426Z,31.50
2019-02-24T23:10:49.070Z,34.00
2019-02-24T23:13:17.702Z,34.33
2019-02-24T23:15:46.388Z,33.83
2019-02-24T23:18:15.012Z,33.13
2019-02-24T23:20:43.567Z,33.30
2019-02-24T23:23:12.247Z,30.67
2019-02-24T23:25:40.883Z,32.30
2019-02-24T23:28:09.506Z,30.47
2019-02-24T23:30:38.185Z,31.50
2019-02-24T23:33:06.737Z,32.37
2019-02-24T23:35:35.382Z,31.73
2019-02-24T23:38:04.045Z,30.47
2019-02-24T23:40:38.502Z,29.83
2019-02-24T23:43:07.160Z,29.93
2019-02-24T23:45:35.908Z,30.03
2019-02-24T23:48:04.554Z,31.47
2019-02-24T23:50:33.237Z,29.87
2019-02-24T23:53:01.869Z,33.47
2019-02-24T23:55:30.352Z,38.60
2019-02-24T23:57:58.893Z,39.30
